sensor_id;sensor_type;location;lat;lon;timestamp;P1;durP1;ratioP1;P2;durP2;ratioP2
71368;SDS011;59175;53.214;5.728;2023-05-08T00:01:07;11.00;;;4.77;;
71368;SDS011;59175;53.214;5.728;2023-05-08T00:03:32;11.57;;;5.07;;
71368;SDS011;59175;53.214;5.728;2023-05-08T00:05:58;10.33;;;4.37;;
71368;SDS011;59175;53.214;5.728;2023-05-08T00:08:23;11.00;;;4.27;;
71368;SDS011;59175;53.214;5.728;2023-05-08T00:10:48;9.93;;;4.23;;
71368;SDS011;59175;53.214;5.728;2023-05-08T00:13:13;12.07;;;4.80;;
71368;SDS011;59175;53.214;5.728;2023-05-08T00:15:39;13.43;;;5.40;;
71368;SDS011;59175;53.214;5.728;2023-05-08T00:18:04;10.37;;;4.70;;
71368;SDS011;59175;53.214;5.728;2023-05-08T00:20:29;12.63;;;5.33;;
71368;SDS011;59175;53.214;5.728;2023-05-08T00:22:54;9.83;;;4.07;;
71368;SDS011;59175;53.214;5.728;2023-05-08T00:25:21;12.80;;;5.65;;
71368;SDS011;59175;53.214;5.728;2023-05-08T00:27:47;12.77;;;5.27;;
71368;SDS011;59175;53.214;5.728;2023-05-08T00:30:12;12.10;;;5.27;;
71368;SDS011;59175;53.214;5.728;2023-05-08T00:32:38;9.38;;;4.68;;
71368;SDS011;59175;53.214;5.728;2023-05-08T00:35:03;12.60;;;5.63;;
71368;SDS011;59175;53.214;5.728;2023-05-08T00:37:28;11.83;;;4.60;;
71368;SDS011;59175;53.214;5.728;2023-05-08T00:39:54;10.63;;;5.23;;
71368;SDS011;59175;53.214;5.728;2023-05-08T00:42:19;11.50;;;4.43;;
71368;SDS011;59175;53.214;5.728;2023-05-08T00:44:44;9.83;;;5.10;;
71368;SDS011;59175;53.214;5.728;2023-05-08T00:47:09;11.73;;;5.60;;
71368;SDS011;59175;53.214;5.728;2023-05-08T00:49:35;10.47;;;4.17;;
71368;SDS011;59175;53.214;5.728;2023-05-08T00:52:00;10.10;;;4.18;;
71368;SDS011;59175;53.214;5.728;2023-05-08T00:54:26;11.67;;;4.77;;
71368;SDS011;59175;53.214;5.728;2023-05-08T00:56:52;7.75;;;3.63;;
71368;SDS011;59175;53.214;5.728;2023-05-08T00:59:19;9.77;;;5.22;;
71368;SDS011;59175;53.214;5.728;2023-05-08T01:01:44;12.93;;;5.03;;
71368;SDS011;59175;53.214;5.728;2023-05-08T01:04:11;9.35;;;4.00;;
71368;SDS011;59175;53.214;5.728;2023-05-08T01:06:37;12.10;;;4.82;;
71368;SDS011;59175;53.214;5.728;2023-05-08T01:09:02;12.03;;;4.77;;
71368;SDS011;59175;53.214;5.728;2023-05-08T01:11:31;10.87;;;4.77;;
71368;SDS011;59175;53.214;5.728;2023-05-08T01:21:56;12.05;;;4.95;;
71368;SDS011;59175;53.214;5.728;2023-05-08T01:24:40;10.77;;;4.22;;
71368;SDS011;59175;53.214;5.728;2023-05-08T01:27:15;10.43;;;4.43;;
71368;SDS011;59175;53.214;5.728;2023-05-08T01:30:06;12.95;;;5.10;;
71368;SDS011;59175;53.214;5.728;2023-05-08T01:32:34;11.23;;;4.70;;
71368;SDS011;59175;53.214;5.728;2023-05-08T01:37:48;12.77;;;4.32;;
71368;SDS011;59175;53.214;5.728;2023-05-08T01:40:20;8.88;;;4.45;;
71368;SDS011;59175;53.214;5.728;2023-05-08T01:42:49;11.82;;;5.05;;
71368;SDS011;59175;53.214;5.728;2023-05-08T01:45:21;12.30;;;4.63;;
71368;SDS011;59175;53.214;5.728;2023-05-08T01:47:49;12.50;;;4.72;;
71368;SDS011;59175;53.214;5.728;2023-05-08T01:50:19;11.23;;;4.72;;
71368;SDS011;59175;53.214;5.728;2023-05-08T01:52:47;10.82;;;4.55;;
71368;SDS011;59175;53.214;5.728;2023-05-08T01:55:16;12.02;;;4.75;;
71368;SDS011;59175;53.214;5.728;2023-05-08T01:57:45;11.50;;;4.70;;
71368;SDS011;59175;53.214;5.728;2023-05-08T02:00:12;12.50;;;6.03;;
71368;SDS011;59175;53.214;5.728;2023-05-08T02:02:38;11.57;;;4.65;;
71368;SDS011;59175;53.214;5.728;2023-05-08T02:05:04;11.47;;;4.80;;
71368;SDS011;59175;53.214;5.728;2023-05-08T02:07:30;11.02;;;4.07;;
71368;SDS011;59175;53.214;5.728;2023-05-08T02:09:58;11.73;;;4.65;;
71368;SDS011;59175;53.214;5.728;2023-05-08T02:12:24;11.83;;;4.30;;
71368;SDS011;59175;53.214;5.728;2023-05-08T02:14:51;12.27;;;5.05;;
71368;SDS011;59175;53.214;5.728;2023-05-08T02:17:17;11.25;;;4.78;;
71368;SDS011;59175;53.214;5.728;2023-05-08T02:19:42;13.90;;;5.20;;
71368;SDS011;59175;53.214;5.728;2023-05-08T02:22:08;14.13;;;5.13;;
71368;SDS011;59175;53.214;5.728;2023-05-08T02:24:34;11.43;;;4.60;;
71368;SDS011;59175;53.214;5.728;2023-05-08T02:27:00;10.32;;;4.78;;
71368;SDS011;59175;53.214;5.728;2023-05-08T02:29:25;8.67;;;4.47;;
71368;SDS011;59175;53.214;5.728;2023-05-08T02:31:51;11.57;;;4.80;;
71368;SDS011;59175;53.214;5.728;2023-05-08T02:34:16;9.63;;;3.83;;
71368;SDS011;59175;53.214;5.728;2023-05-08T02:36:42;12.77;;;4.63;;
71368;SDS011;59175;53.214;5.728;2023-05-08T02:39:08;10.27;;;5.13;;
71368;SDS011;59175;53.214;5.728;2023-05-08T02:41:35;12.75;;;4.43;;
71368;SDS011;59175;53.214;5.728;2023-05-08T02:44:01;12.00;;;5.13;;
71368;SDS011;59175;53.214;5.728;2023-05-08T02:46:30;14.27;;;5.67;;
71368;SDS011;59175;53.214;5.728;2023-05-08T02:49:03;11.35;;;4.93;;
71368;SDS011;59175;53.214;5.728;2023-05-08T02:54:09;11.67;;;5.27;;
71368;SDS011;59175;53.214;5.728;2023-05-08T02:56:39;12.73;;;4.82;;
71368;SDS011;59175;53.214;5.728;2023-05-08T02:59:41;11.85;;;4.95;;
71368;SDS011;59175;53.214;5.728;2023-05-08T03:02:01;14.03;;;5.17;;
71368;SDS011;59175;53.214;5.728;2023-05-08T03:04:31;17.67;;;5.30;;
71368;SDS011;59175;53.214;5.728;2023-05-08T03:06:58;12.30;;;4.35;;
71368;SDS011;59175;53.214;5.728;2023-05-08T03:09:25;10.65;;;4.50;;
71368;SDS011;59175;53.214;5.728;2023-05-08T03:12:02;12.02;;;5.03;;
71368;SDS011;59175;53.214;5.728;2023-05-08T03:14:28;13.27;;;5.20;;
71368;SDS011;59175;53.214;5.728;2023-05-08T03:16:55;13.25;;;5.93;;
71368;SDS011;59175;53.214;5.728;2023-05-08T03:19:23;12.82;;;5.53;;
71368;SDS011;59175;53.214;5.728;2023-05-08T03:21:50;14.27;;;5.72;;
71368;SDS011;59175;53.214;5.728;2023-05-08T03:24:17;14.35;;;5.75;;
71368;SDS011;59175;53.214;5.728;2023-05-08T03:26:43;13.37;;;5.50;;
71368;SDS011;59175;53.214;5.728;2023-05-08T03:29:09;13.13;;;5.68;;
71368;SDS011;59175;53.214;5.728;2023-05-08T03:31:34;15.13;;;6.07;;
71368;SDS011;59175;53.214;5.728;2023-05-08T03:34:00;11.15;;;4.63;;
71368;SDS011;59175;53.214;5.728;2023-05-08T03:36:26;13.20;;;5.67;;
71368;SDS011;59175;53.214;5.728;2023-05-08T03:38:52;12.25;;;5.88;;
71368;SDS011;59175;53.214;5.728;2023-05-08T03:41:18;12.67;;;5.43;;
71368;SDS011;59175;53.214;5.728;2023-05-08T03:43:43;15.83;;;4.97;;
71368;SDS011;59175;53.214;5.728;2023-05-08T03:46:09;13.60;;;4.72;;
71368;SDS011;59175;53.214;5.728;2023-05-08T03:48:35;13.73;;;4.93;;
71368;SDS011;59175;53.214;5.728;2023-05-08T03:51:01;13.85;;;5.15;;
71368;SDS011;59175;53.214;5.728;2023-05-08T03:53:27;11.50;;;4.70;;
71368;SDS011;59175;53.214;5.728;2023-05-08T03:55:53;12.90;;;5.23;;
71368;SDS011;59175;53.214;5.728;2023-05-08T03:58:36;12.90;;;5.50;;
71368;SDS011;59175;53.214;5.728;2023-05-08T04:01:11;9.95;;;4.43;;
71368;SDS011;59175;53.214;5.728;2023-05-08T04:03:46;11.55;;;4.55;;
71368;SDS011;59175;53.214;5.728;2023-05-08T04:06:16;14.02;;;5.13;;
71368;SDS011;59175;53.214;5.728;2023-05-08T04:08:52;12.55;;;5.38;;
71368;SDS011;59175;53.214;5.728;2023-05-08T04:11:25;14.63;;;5.77;;
71368;SDS011;59175;53.214;5.728;2023-05-08T04:13:56;13.60;;;5.25;;
71368;SDS011;59175;53.214;5.728;2023-05-08T04:16:25;13.07;;;5.68;;
71368;SDS011;59175;53.214;5.728;2023-05-08T04:18:53;15.00;;;6.32;;
71368;SDS011;59175;53.214;5.728;2023-05-08T04:21:22;13.00;;;5.10;;
71368;SDS011;59175;53.214;5.728;2023-05-08T04:23:48;10.97;;;4.73;;
71368;SDS011;59175;53.214;5.728;2023-05-08T04:26:15;15.35;;;5.88;;
71368;SDS011;59175;53.214;5.728;2023-05-08T04:28:40;14.50;;;6.38;;
71368;SDS011;59175;53.214;5.728;2023-05-08T04:31:06;12.17;;;5.17;;
71368;SDS011;59175;53.214;5.728;2023-05-08T04:33:32;13.13;;;4.85;;
71368;SDS011;59175;53.214;5.728;2023-05-08T04:36:00;11.67;;;4.50;;
71368;SDS011;59175;53.214;5.728;2023-05-08T04:38:25;12.27;;;4.72;;
71368;SDS011;59175;53.214;5.728;2023-05-08T04:40:51;14.03;;;5.80;;
71368;SDS011;59175;53.214;5.728;2023-05-08T04:43:16;11.60;;;4.70;;
71368;SDS011;59175;53.214;5.728;2023-05-08T04:45:41;13.50;;;5.73;;
71368;SDS011;59175;53.214;5.728;2023-05-08T04:48:06;14.03;;;5.00;;
71368;SDS011;59175;53.214;5.728;2023-05-08T04:50:31;11.27;;;4.40;;
71368;SDS011;59175;53.214;5.728;2023-05-08T04:52:57;10.77;;;4.77;;
71368;SDS011;59175;53.214;5.728;2023-05-08T04:55:22;13.00;;;5.53;;
71368;SDS011;59175;53.214;5.728;2023-05-08T04:57:47;11.60;;;5.00;;
71368;SDS011;59175;53.214;5.728;2023-05-08T05:00:12;13.97;;;6.70;;
71368;SDS011;59175;53.214;5.728;2023-05-08T05:02:38;9.85;;;4.20;;
71368;SDS011;59175;53.214;5.728;2023-05-08T05:05:03;14.40;;;5.43;;
71368;SDS011;59175;53.214;5.728;2023-05-08T05:07:28;12.97;;;5.37;;
71368;SDS011;59175;53.214;5.728;2023-05-08T05:09:53;14.37;;;4.63;;
71368;SDS011;59175;53.214;5.728;2023-05-08T05:12:19;11.77;;;5.00;;
71368;SDS011;59175;53.214;5.728;2023-05-08T05:14:44;11.27;;;4.73;;
71368;SDS011;59175;53.214;5.728;2023-05-08T05:17:09;12.33;;;5.23;;
71368;SDS011;59175;53.214;5.728;2023-05-08T05:19:34;12.03;;;5.17;;
71368;SDS011;59175;53.214;5.728;2023-05-08T05:21:59;12.60;;;5.67;;
71368;SDS011;59175;53.214;5.728;2023-05-08T05:24:25;10.87;;;4.50;;
71368;SDS011;59175;53.214;5.728;2023-05-08T05:26:50;10.27;;;4.03;;
71368;SDS011;59175;53.214;5.728;2023-05-08T05:29:15;11.97;;;4.77;;
71368;SDS011;59175;53.214;5.728;2023-05-08T05:31:40;9.63;;;4.10;;
71368;SDS011;59175;53.214;5.728;2023-05-08T05:34:06;10.93;;;4.90;;
71368;SDS011;59175;53.214;5.728;2023-05-08T05:36:32;13.77;;;4.50;;
71368;SDS011;59175;53.214;5.728;2023-05-08T05:38:57;11.77;;;5.13;;
71368;SDS011;59175;53.214;5.728;2023-05-08T05:41:22;10.20;;;4.63;;
71368;SDS011;59175;53.214;5.728;2023-05-08T05:43:48;10.93;;;4.97;;
71368;SDS011;59175;53.214;5.728;2023-05-08T05:46:13;12.57;;;4.50;;
71368;SDS011;59175;53.214;5.728;2023-05-08T05:48:38;11.90;;;5.27;;
71368;SDS011;59175;53.214;5.728;2023-05-08T05:51:03;11.20;;;4.43;;
71368;SDS011;59175;53.214;5.728;2023-05-08T05:53:29;12.77;;;5.40;;
71368;SDS011;59175;53.214;5.728;2023-05-08T05:55:54;12.30;;;4.93;;
71368;SDS011;59175;53.214;5.728;2023-05-08T05:58:19;13.30;;;4.80;;
71368;SDS011;59175;53.214;5.728;2023-05-08T06:00:45;13.23;;;5.50;;
71368;SDS011;59175;53.214;5.728;2023-05-08T06:03:11;13.55;;;5.07;;
71368;SDS011;59175;53.214;5.728;2023-05-08T06:05:37;13.07;;;5.85;;
71368;SDS011;59175;53.214;5.728;2023-05-08T06:08:03;13.27;;;5.43;;
71368;SDS011;59175;53.214;5.728;2023-05-08T06:10:29;12.27;;;5.55;;
71368;SDS011;59175;53.214;5.728;2023-05-08T06:12:54;10.27;;;5.40;;
71368;SDS011;59175;53.214;5.728;2023-05-08T06:15:20;12.27;;;5.47;;
71368;SDS011;59175;53.214;5.728;2023-05-08T06:17:46;12.85;;;5.38;;
71368;SDS011;59175;53.214;5.728;2023-05-08T06:20:11;12.93;;;5.13;;
71368;SDS011;59175;53.214;5.728;2023-05-08T06:22:37;14.80;;;5.27;;
71368;SDS011;59175;53.214;5.728;2023-05-08T06:25:04;14.43;;;5.10;;
71368;SDS011;59175;53.214;5.728;2023-05-08T06:27:31;11.20;;;5.03;;
71368;SDS011;59175;53.214;5.728;2023-05-08T06:29:56;13.37;;;5.87;;
71368;SDS011;59175;53.214;5.728;2023-05-08T06:32:21;12.67;;;5.57;;
71368;SDS011;59175;53.214;5.728;2023-05-08T06:34:47;12.73;;;5.77;;
71368;SDS011;59175;53.214;5.728;2023-05-08T06:37:12;14.60;;;5.67;;
71368;SDS011;59175;53.214;5.728;2023-05-08T06:39:37;12.37;;;5.37;;
71368;SDS011;59175;53.214;5.728;2023-05-08T06:42:02;13.27;;;5.73;;
71368;SDS011;59175;53.214;5.728;2023-05-08T06:44:30;12.73;;;5.38;;
71368;SDS011;59175;53.214;5.728;2023-05-08T06:46:55;9.70;;;5.13;;
71368;SDS011;59175;53.214;5.728;2023-05-08T06:49:21;14.97;;;5.67;;
71368;SDS011;59175;53.214;5.728;2023-05-08T06:51:46;13.98;;;4.90;;
71368;SDS011;59175;53.214;5.728;2023-05-08T06:54:12;10.93;;;4.60;;
71368;SDS011;59175;53.214;5.728;2023-05-08T06:56:37;13.20;;;5.43;;
71368;SDS011;59175;53.214;5.728;2023-05-08T06:59:02;10.83;;;4.70;;
71368;SDS011;59175;53.214;5.728;2023-05-08T07:01:27;14.03;;;5.13;;
71368;SDS011;59175;53.214;5.728;2023-05-08T07:03:53;12.67;;;5.77;;
71368;SDS011;59175;53.214;5.728;2023-05-08T07:06:18;13.17;;;5.37;;
71368;SDS011;59175;53.214;5.728;2023-05-08T07:08:43;10.97;;;5.83;;
71368;SDS011;59175;53.214;5.728;2023-05-08T07:11:08;11.73;;;5.23;;
71368;SDS011;59175;53.214;5.728;2023-05-08T07:13:37;12.05;;;4.63;;
71368;SDS011;59175;53.214;5.728;2023-05-08T07:16:02;10.77;;;4.47;;
71368;SDS011;59175;53.214;5.728;2023-05-08T07:18:29;13.75;;;5.60;;
71368;SDS011;59175;53.214;5.728;2023-05-08T07:20:54;13.67;;;6.07;;
71368;SDS011;59175;53.214;5.728;2023-05-08T07:23:19;10.90;;;4.73;;
71368;SDS011;59175;53.214;5.728;2023-05-08T07:25:45;11.97;;;5.13;;
71368;SDS011;59175;53.214;5.728;2023-05-08T07:28:10;12.27;;;5.10;;
71368;SDS011;59175;53.214;5.728;2023-05-08T07:30:36;16.77;;;5.73;;
71368;SDS011;59175;53.214;5.728;2023-05-08T07:33:01;15.90;;;5.85;;
71368;SDS011;59175;53.214;5.728;2023-05-08T07:35:26;13.20;;;5.75;;
71368;SDS011;59175;53.214;5.728;2023-05-08T07:37:53;12.32;;;4.97;;
71368;SDS011;59175;53.214;5.728;2023-05-08T07:40:18;11.30;;;5.90;;
71368;SDS011;59175;53.214;5.728;2023-05-08T07:42:43;10.93;;;4.87;;
71368;SDS011;59175;53.214;5.728;2023-05-08T07:45:09;12.83;;;6.00;;
71368;SDS011;59175;53.214;5.728;2023-05-08T07:47:35;12.70;;;5.68;;
71368;SDS011;59175;53.214;5.728;2023-05-08T07:50:00;11.50;;;5.37;;
71368;SDS011;59175;53.214;5.728;2023-05-08T07:52:26;11.10;;;5.27;;
71368;SDS011;59175;53.214;5.728;2023-05-08T07:54:51;12.23;;;5.17;;
71368;SDS011;59175;53.214;5.728;2023-05-08T07:57:16;11.03;;;5.33;;
71368;SDS011;59175;53.214;5.728;2023-05-08T07:59:41;15.43;;;6.37;;
71368;SDS011;59175;53.214;5.728;2023-05-08T08:02:07;14.97;;;5.70;;
71368;SDS011;59175;53.214;5.728;2023-05-08T08:04:32;13.20;;;5.43;;
71368;SDS011;59175;53.214;5.728;2023-05-08T08:06:57;13.05;;;6.05;;
71368;SDS011;59175;53.214;5.728;2023-05-08T08:09:23;13.90;;;5.93;;
71368;SDS011;59175;53.214;5.728;2023-05-08T08:11:48;17.93;;;5.73;;
71368;SDS011;59175;53.214;5.728;2023-05-08T08:14:13;14.97;;;5.87;;
71368;SDS011;59175;53.214;5.728;2023-05-08T08:16:38;12.40;;;5.60;;
71368;SDS011;59175;53.214;5.728;2023-05-08T08:19:03;13.83;;;5.53;;
71368;SDS011;59175;53.214;5.728;2023-05-08T08:21:29;13.60;;;5.83;;
71368;SDS011;59175;53.214;5.728;2023-05-08T08:23:55;11.85;;;5.65;;
71368;SDS011;59175;53.214;5.728;2023-05-08T08:26:20;14.47;;;5.87;;
71368;SDS011;59175;53.214;5.728;2023-05-08T08:28:45;13.40;;;6.30;;
71368;SDS011;59175;53.214;5.728;2023-05-08T08:31:11;11.20;;;4.73;;
71368;SDS011;59175;53.214;5.728;2023-05-08T08:33:36;15.13;;;6.20;;
71368;SDS011;59175;53.214;5.728;2023-05-08T08:36:01;15.50;;;5.93;;
71368;SDS011;59175;53.214;5.728;2023-05-08T08:38:27;12.18;;;5.22;;
71368;SDS011;59175;53.214;5.728;2023-05-08T08:40:52;13.13;;;6.87;;
71368;SDS011;59175;53.214;5.728;2023-05-08T08:43:18;12.03;;;5.03;;
71368;SDS011;59175;53.214;5.728;2023-05-08T08:45:43;15.83;;;5.90;;
71368;SDS011;59175;53.214;5.728;2023-05-08T08:48:09;14.30;;;6.93;;
71368;SDS011;59175;53.214;5.728;2023-05-08T08:50:36;12.85;;;5.97;;
71368;SDS011;59175;53.214;5.728;2023-05-08T08:53:15;14.15;;;6.65;;
71368;SDS011;59175;53.214;5.728;2023-05-08T08:55:45;14.27;;;5.77;;
71368;SDS011;59175;53.214;5.728;2023-05-08T09:00:40;12.77;;;6.82;;
71368;SDS011;59175;53.214;5.728;2023-05-08T09:03:05;14.90;;;5.93;;
71368;SDS011;59175;53.214;5.728;2023-05-08T09:05:33;16.50;;;7.68;;
71368;SDS011;59175;53.214;5.728;2023-05-08T09:07:59;11.40;;;6.07;;
71368;SDS011;59175;53.214;5.728;2023-05-08T09:10:24;15.70;;;6.72;;
71368;SDS011;59175;53.214;5.728;2023-05-08T09:12:49;13.37;;;6.43;;
71368;SDS011;59175;53.214;5.728;2023-05-08T09:15:15;13.47;;;6.17;;
71368;SDS011;59175;53.214;5.728;2023-05-08T09:17:40;13.13;;;5.83;;
71368;SDS011;59175;53.214;5.728;2023-05-08T09:20:06;15.33;;;6.47;;
71368;SDS011;59175;53.214;5.728;2023-05-08T09:22:31;13.13;;;6.32;;
71368;SDS011;59175;53.214;5.728;2023-05-08T09:24:57;14.05;;;6.20;;
71368;SDS011;59175;53.214;5.728;2023-05-08T09:27:23;18.13;;;7.33;;
71368;SDS011;59175;53.214;5.728;2023-05-08T09:30:02;14.40;;;6.53;;
71368;SDS011;59175;53.214;5.728;2023-05-08T09:32:28;16.15;;;7.72;;
71368;SDS011;59175;53.214;5.728;2023-05-08T09:34:54;15.18;;;6.50;;
71368;SDS011;59175;53.214;5.728;2023-05-08T09:37:19;12.57;;;6.23;;
71368;SDS011;59175;53.214;5.728;2023-05-08T09:39:45;16.13;;;6.37;;
71368;SDS011;59175;53.214;5.728;2023-05-08T09:42:11;14.02;;;6.93;;
71368;SDS011;59175;53.214;5.728;2023-05-08T09:44:43;18.87;;;8.07;;
71368;SDS011;59175;53.214;5.728;2023-05-08T09:47:10;17.08;;;8.75;;
71368;SDS011;59175;53.214;5.728;2023-05-08T09:49:35;17.20;;;7.65;;
71368;SDS011;59175;53.214;5.728;2023-05-08T09:52:01;17.40;;;7.67;;
71368;SDS011;59175;53.214;5.728;2023-05-08T09:54:27;15.35;;;7.85;;
71368;SDS011;59175;53.214;5.728;2023-05-08T09:56:52;17.30;;;7.03;;
71368;SDS011;59175;53.214;5.728;2023-05-08T09:59:35;17.40;;;7.80;;
71368;SDS011;59175;53.214;5.728;2023-05-08T10:02:01;18.02;;;7.10;;
71368;SDS011;59175;53.214;5.728;2023-05-08T10:04:34;16.13;;;7.50;;
71368;SDS011;59175;53.214;5.728;2023-05-08T10:06:59;16.05;;;7.05;;
71368;SDS011;59175;53.214;5.728;2023-05-08T10:09:25;19.35;;;8.95;;
71368;SDS011;59175;53.214;5.728;2023-05-08T10:11:51;15.33;;;7.37;;
71368;SDS011;59175;53.214;5.728;2023-05-08T10:14:16;16.03;;;8.13;;
71368;SDS011;59175;53.214;5.728;2023-05-08T10:16:42;19.58;;;9.13;;
71368;SDS011;59175;53.214;5.728;2023-05-08T10:19:11;18.17;;;8.68;;
71368;SDS011;59175;53.214;5.728;2023-05-08T10:21:36;17.40;;;8.55;;
71368;SDS011;59175;53.214;5.728;2023-05-08T10:24:06;16.63;;;7.75;;
71368;SDS011;59175;53.214;5.728;2023-05-08T10:26:33;16.90;;;7.78;;
71368;SDS011;59175;53.214;5.728;2023-05-08T10:29:03;19.45;;;9.73;;
71368;SDS011;59175;53.214;5.728;2023-05-08T10:31:33;16.73;;;8.40;;
71368;SDS011;59175;53.214;5.728;2023-05-08T10:33:59;23.98;;;9.48;;
71368;SDS011;59175;53.214;5.728;2023-05-08T10:36:25;20.30;;;9.50;;
71368;SDS011;59175;53.214;5.728;2023-05-08T10:38:52;17.38;;;8.27;;
71368;SDS011;59175;53.214;5.728;2023-05-08T10:41:17;19.00;;;8.27;;
71368;SDS011;59175;53.214;5.728;2023-05-08T10:43:43;18.63;;;8.48;;
71368;SDS011;59175;53.214;5.728;2023-05-08T10:46:10;19.90;;;9.23;;
71368;SDS011;59175;53.214;5.728;2023-05-08T10:51:46;20.58;;;8.77;;
71368;SDS011;59175;53.214;5.728;2023-05-08T10:54:05;21.10;;;9.38;;
71368;SDS011;59175;53.214;5.728;2023-05-08T10:56:32;16.80;;;7.65;;
71368;SDS011;59175;53.214;5.728;2023-05-08T10:59:01;22.17;;;8.63;;
71368;SDS011;59175;53.214;5.728;2023-05-08T11:01:27;16.87;;;7.63;;
71368;SDS011;59175;53.214;5.728;2023-05-08T11:03:53;17.90;;;8.18;;
71368;SDS011;59175;53.214;5.728;2023-05-08T11:07:07;17.33;;;7.20;;
71368;SDS011;59175;53.214;5.728;2023-05-08T11:09:07;17.20;;;8.30;;
71368;SDS011;59175;53.214;5.728;2023-05-08T11:11:34;18.60;;;9.85;;
71368;SDS011;59175;53.214;5.728;2023-05-08T11:19:17;18.70;;;8.88;;
71368;SDS011;59175;53.214;5.728;2023-05-08T11:24:46;18.63;;;8.47;;
71368;SDS011;59175;53.214;5.728;2023-05-08T11:27:11;17.45;;;7.72;;
71368;SDS011;59175;53.214;5.728;2023-05-08T11:29:36;17.50;;;8.53;;
71368;SDS011;59175;53.214;5.728;2023-05-08T11:32:02;17.35;;;8.55;;
71368;SDS011;59175;53.214;5.728;2023-05-08T11:37:15;20.05;;;8.73;;
71368;SDS011;59175;53.214;5.728;2023-05-08T11:39:41;15.90;;;8.52;;
71368;SDS011;59175;53.214;5.728;2023-05-08T11:47:37;18.73;;;8.23;;
71368;SDS011;59175;53.214;5.728;2023-05-08T11:50:02;17.98;;;8.15;;
71368;SDS011;59175;53.214;5.728;2023-05-08T11:52:30;20.33;;;9.40;;
71368;SDS011;59175;53.214;5.728;2023-05-08T11:54:55;19.30;;;8.68;;
71368;SDS011;59175;53.214;5.728;2023-05-08T11:57:20;17.80;;;7.83;;
71368;SDS011;59175;53.214;5.728;2023-05-08T11:59:49;18.83;;;8.80;;
71368;SDS011;59175;53.214;5.728;2023-05-08T12:02:15;16.90;;;8.15;;
71368;SDS011;59175;53.214;5.728;2023-05-08T12:04:41;20.27;;;9.33;;
71368;SDS011;59175;53.214;5.728;2023-05-08T12:07:06;23.00;;;9.10;;
71368;SDS011;59175;53.214;5.728;2023-05-08T12:09:32;21.40;;;9.57;;
71368;SDS011;59175;53.214;5.728;2023-05-08T12:11:57;17.93;;;8.77;;
71368;SDS011;59175;53.214;5.728;2023-05-08T12:14:22;18.03;;;10.03;;
71368;SDS011;59175;53.214;5.728;2023-05-08T12:16:48;19.95;;;9.20;;
71368;SDS011;59175;53.214;5.728;2023-05-08T12:19:13;21.53;;;9.43;;
71368;SDS011;59175;53.214;5.728;2023-05-08T12:21:38;17.03;;;8.80;;
71368;SDS011;59175;53.214;5.728;2023-05-08T12:24:09;15.73;;;8.57;;
71368;SDS011;59175;53.214;5.728;2023-05-08T12:26:35;16.92;;;8.55;;
71368;SDS011;59175;53.214;5.728;2023-05-08T12:29:01;18.17;;;9.50;;
71368;SDS011;59175;53.214;5.728;2023-05-08T12:31:29;19.80;;;9.57;;
71368;SDS011;59175;53.214;5.728;2023-05-08T12:33:54;20.33;;;9.00;;
71368;SDS011;59175;53.214;5.728;2023-05-08T12:36:20;23.83;;;10.63;;
71368;SDS011;59175;53.214;5.728;2023-05-08T12:38:45;20.47;;;9.77;;
71368;SDS011;59175;53.214;5.728;2023-05-08T12:41:10;21.13;;;9.20;;
71368;SDS011;59175;53.214;5.728;2023-05-08T12:43:36;20.08;;;10.07;;
71368;SDS011;59175;53.214;5.728;2023-05-08T12:46:02;16.60;;;9.10;;
71368;SDS011;59175;53.214;5.728;2023-05-08T12:48:28;20.90;;;9.93;;
71368;SDS011;59175;53.214;5.728;2023-05-08T12:50:53;20.40;;;9.67;;
71368;SDS011;59175;53.214;5.728;2023-05-08T12:53:19;18.80;;;9.97;;
71368;SDS011;59175;53.214;5.728;2023-05-08T12:55:53;22.77;;;10.27;;
71368;SDS011;59175;53.214;5.728;2023-05-08T12:58:19;22.60;;;10.18;;
71368;SDS011;59175;53.214;5.728;2023-05-08T13:00:48;19.98;;;10.65;;
71368;SDS011;59175;53.214;5.728;2023-05-08T13:03:22;20.57;;;9.90;;
71368;SDS011;59175;53.214;5.728;2023-05-08T13:05:50;23.10;;;11.50;;
71368;SDS011;59175;53.214;5.728;2023-05-08T13:08:16;19.98;;;9.68;;
71368;SDS011;59175;53.214;5.728;2023-05-08T13:10:41;20.47;;;10.23;;
71368;SDS011;59175;53.214;5.728;2023-05-08T13:13:07;22.50;;;11.83;;
71368;SDS011;59175;53.214;5.728;2023-05-08T13:15:32;23.60;;;10.33;;
71368;SDS011;59175;53.214;5.728;2023-05-08T13:17:57;23.43;;;11.20;;
71368;SDS011;59175;53.214;5.728;2023-05-08T13:20:22;24.37;;;11.00;;
71368;SDS011;59175;53.214;5.728;2023-05-08T13:22:47;22.33;;;10.60;;
71368;SDS011;59175;53.214;5.728;2023-05-08T13:25:13;25.93;;;12.30;;
71368;SDS011;59175;53.214;5.728;2023-05-08T13:27:38;21.60;;;11.03;;
71368;SDS011;59175;53.214;5.728;2023-05-08T13:30:03;23.87;;;11.13;;
71368;SDS011;59175;53.214;5.728;2023-05-08T13:32:29;22.73;;;11.48;;
71368;SDS011;59175;53.214;5.728;2023-05-08T13:34:55;26.03;;;11.90;;
71368;SDS011;59175;53.214;5.728;2023-05-08T13:37:20;23.60;;;11.30;;
71368;SDS011;59175;53.214;5.728;2023-05-08T13:39:45;22.00;;;10.67;;
71368;SDS011;59175;53.214;5.728;2023-05-08T13:42:10;23.70;;;10.80;;
71368;SDS011;59175;53.214;5.728;2023-05-08T13:44:35;21.27;;;10.70;;
71368;SDS011;59175;53.214;5.728;2023-05-08T13:47:00;20.85;;;10.90;;
71368;SDS011;59175;53.214;5.728;2023-05-08T13:49:26;22.95;;;11.15;;
71368;SDS011;59175;53.214;5.728;2023-05-08T13:51:51;20.93;;;10.93;;
71368;SDS011;59175;53.214;5.728;2023-05-08T13:54:16;20.33;;;10.27;;
71368;SDS011;59175;53.214;5.728;2023-05-08T13:56:42;19.97;;;10.27;;
71368;SDS011;59175;53.214;5.728;2023-05-08T13:59:07;19.40;;;10.80;;
71368;SDS011;59175;53.214;5.728;2023-05-08T14:01:33;20.40;;;10.82;;
71368;SDS011;59175;53.214;5.728;2023-05-08T14:03:58;20.30;;;10.27;;
71368;SDS011;59175;53.214;5.728;2023-05-08T14:06:23;18.97;;;10.17;;
71368;SDS011;59175;53.214;5.728;2023-05-08T14:08:49;20.83;;;10.10;;
71368;SDS011;59175;53.214;5.728;2023-05-08T14:11:14;19.90;;;10.40;;
71368;SDS011;59175;53.214;5.728;2023-05-08T14:13:39;18.57;;;9.10;;
71368;SDS011;59175;53.214;5.728;2023-05-08T14:16:04;18.23;;;9.17;;
71368;SDS011;59175;53.214;5.728;2023-05-08T14:18:32;18.85;;;8.73;;
71368;SDS011;59175;53.214;5.728;2023-05-08T14:20:57;20.27;;;9.50;;
71368;SDS011;59175;53.214;5.728;2023-05-08T14:23:22;17.97;;;9.00;;
71368;SDS011;59175;53.214;5.728;2023-05-08T14:25:47;15.53;;;7.87;;
71368;SDS011;59175;53.214;5.728;2023-05-08T14:28:12;17.53;;;8.53;;
71368;SDS011;59175;53.214;5.728;2023-05-08T14:30:38;14.43;;;6.80;;
71368;SDS011;59175;53.214;5.728;2023-05-08T14:33:03;13.83;;;7.03;;
71368;SDS011;59175;53.214;5.728;2023-05-08T14:35:28;13.57;;;7.07;;
71368;SDS011;59175;53.214;5.728;2023-05-08T14:37:53;10.93;;;6.10;;
71368;SDS011;59175;53.214;5.728;2023-05-08T14:40:18;11.13;;;6.13;;
71368;SDS011;59175;53.214;5.728;2023-05-08T14:42:44;15.93;;;7.90;;
71368;SDS011;59175;53.214;5.728;2023-05-08T14:45:09;16.03;;;7.70;;
71368;SDS011;59175;53.214;5.728;2023-05-08T14:47:34;17.40;;;8.10;;
71368;SDS011;59175;53.214;5.728;2023-05-08T14:49:59;19.13;;;9.47;;
71368;SDS011;59175;53.214;5.728;2023-05-08T14:52:25;16.23;;;8.90;;
71368;SDS011;59175;53.214;5.728;2023-05-08T14:54:50;18.13;;;9.00;;
71368;SDS011;59175;53.214;5.728;2023-05-08T14:57:17;18.70;;;8.95;;
71368;SDS011;59175;53.214;5.728;2023-05-08T14:59:42;18.50;;;9.50;;
71368;SDS011;59175;53.214;5.728;2023-05-08T15:02:07;19.70;;;8.80;;
71368;SDS011;59175;53.214;5.728;2023-05-08T15:04:32;14.37;;;8.00;;